createdAt,value
2024-03-06T00:02:22.686Z,-1.40
2024-03-06T00:04:49.353Z,-1.44
2024-03-06T00:07:16.254Z,-1.47
2024-03-06T00:09:43.065Z,-1.52
2024-03-06T00:12:09.837Z,-1.56
2024-03-06T00:14:37.616Z,-1.59
2024-03-06T00:17:08.242Z,-1.59
2024-03-06T00:19:35.178Z,-1.67
2024-03-06T00:22:04.804Z,-1.67
2024-03-06T00:24:31.470Z,-1.68
2024-03-06T00:26:58.049Z,-1.71
2024-03-06T00:29:24.657Z,-1.73
2024-03-06T00:31:51.719Z,-1.74
2024-03-06T00:34:18.575Z,-1.77
2024-03-06T00:36:45.281Z,-1.80
2024-03-06T00:39:12.224Z,-1.80
2024-03-06T00:41:38.893Z,-1.84
2024-03-06T00:44:06.969Z,-1.84
2024-03-06T00:46:33.623Z,-1.87
2024-03-06T00:49:00.218Z,-1.85
2024-03-06T00:51:36.813Z,-1.88
2024-03-06T00:54:08.721Z,-1.90
2024-03-06T00:56:39.182Z,-1.92
2024-03-06T00:59:06.440Z,-1.97
2024-03-06T01:01:33.577Z,-1.98
2024-03-06T01:04:00.234Z,-1.98
2024-03-06T01:06:26.787Z,-2.01
2024-03-06T01:08:53.411Z,-2.02
2024-03-06T01:11:20.066Z,-2.01
2024-03-06T01:13:46.688Z,-2.04
2024-03-06T01:16:13.653Z,-2.09
2024-03-06T01:18:40.159Z,-2.08
2024-03-06T01:21:06.739Z,-2.08
2024-03-06T01:23:33.233Z,-2.12
2024-03-06T01:25:59.856Z,-2.12
2024-03-06T01:28:27.113Z,-2.15
2024-03-06T01:30:53.764Z,-2.15
2024-03-06T01:33:20.469Z,-2.14
2024-03-06T01:35:47.124Z,-2.12
2024-03-06T01:38:13.742Z,-2.14
2024-03-06T01:40:44.376Z,-2.16
2024-03-06T01:43:23.533Z,-2.22
2024-03-06T01:45:50.705Z,-2.25
2024-03-06T01:48:27.098Z,-2.29
2024-03-06T01:50:59.022Z,-2.29
2024-03-06T01:53:26.248Z,-2.35
2024-03-06T01:55:53.424Z,-2.33
2024-03-06T01:58:22.359Z,-2.35
2024-03-06T02:00:50.865Z,-2.36
2024-03-06T02:03:20.440Z,-2.33
2024-03-06T02:05:49.495Z,-2.35
2024-03-06T02:08:16.182Z,-2.41
2024-03-06T02:10:42.765Z,-2.41
2024-03-06T02:13:10.789Z,-2.39
2024-03-06T02:15:37.436Z,-2.39
2024-03-06T02:18:07.701Z,-2.41
2024-03-06T02:20:35.897Z,-2.39
2024-03-06T02:23:02.569Z,-2.38
2024-03-06T02:25:29.273Z,-2.36
2024-03-06T02:27:55.862Z,-2.42
2024-03-06T02:30:24.763Z,-2.41
2024-03-06T02:32:51.479Z,-2.42
2024-03-06T02:35:19.233Z,-2.46
2024-03-06T02:37:45.976Z,-2.48
2024-03-06T02:40:12.877Z,-2.50
2024-03-06T02:42:42.946Z,-2.50
2024-03-06T02:45:09.981Z,-2.52
2024-03-06T02:47:36.818Z,-2.57
2024-03-06T02:50:03.717Z,-2.56
2024-03-06T02:52:30.385Z,-2.56
2024-03-06T02:54:57.564Z,-2.57
2024-03-06T02:57:24.248Z,-2.57
2024-03-06T02:59:51.110Z,-2.60
2024-03-06T03:02:17.792Z,-2.62
2024-03-06T03:04:45.054Z,-2.66
2024-03-06T03:07:11.750Z,-2.66
2024-03-06T03:09:39.567Z,-2.70
2024-03-06T03:12:06.888Z,-2.74
2024-03-06T03:14:33.955Z,-2.79
2024-03-06T03:17:02.003Z,-2.77
2024-03-06T03:19:28.769Z,-2.79
2024-03-06T03:21:55.400Z,-2.79
2024-03-06T03:24:22.841Z,-2.79
2024-03-06T03:26:49.505Z,-2.81
2024-03-06T03:29:16.170Z,-2.81
2024-03-06T03:31:43.723Z,-2.83
2024-03-06T03:34:11.534Z,-2.83
2024-03-06T03:36:44.216Z,-2.81
2024-03-06T03:39:21.732Z,-2.84
2024-03-06T03:41:49.537Z,-2.84
2024-03-06T03:44:22.882Z,-2.84
2024-03-06T03:46:49.626Z,-2.84
2024-03-06T03:49:16.241Z,-2.85
2024-03-06T03:51:42.944Z,-2.85
2024-03-06T03:54:09.559Z,-2.88
2024-03-06T03:56:36.540Z,-2.87
2024-03-06T03:59:04.017Z,-2.87
2024-03-06T04:01:30.743Z,-2.88
2024-03-06T04:03:57.287Z,-2.88
2024-03-06T04:06:24.013Z,-2.94
2024-03-06T04:08:50.560Z,-2.94
2024-03-06T04:11:17.542Z,-2.94
2024-03-06T04:13:44.530Z,-2.93
2024-03-06T04:16:11.292Z,-2.95
2024-03-06T04:18:38.182Z,-2.95
2024-03-06T04:21:08.210Z,-2.97
2024-03-06T04:23:34.980Z,-2.95
2024-03-06T04:26:02.005Z,-2.94
2024-03-06T04:28:28.904Z,-2.95
2024-03-06T04:30:55.901Z,-2.98
2024-03-06T04:33:22.957Z,-3.01
2024-03-06T04:35:49.506Z,-3.01
2024-03-06T04:38:16.267Z,-3.08
2024-03-06T04:40:42.936Z,-3.11
2024-03-06T04:43:09.630Z,-3.15
2024-03-06T04:45:36.522Z,-3.14
2024-03-06T04:48:03.437Z,-3.16
2024-03-06T04:50:30.175Z,-3.15
2024-03-06T04:52:57.397Z,-3.18
2024-03-06T04:55:26.092Z,-3.21
2024-03-06T04:57:54.676Z,-3.21
2024-03-06T05:00:21.355Z,-3.24
2024-03-06T06:00:23.006Z,-3.09
2024-03-06T06:02:49.692Z,-3.11
2024-03-06T06:05:23.051Z,-3.04
2024-03-06T06:07:53.574Z,-3.00
2024-03-06T06:10:21.855Z,-2.93
2024-03-06T06:12:49.995Z,-2.84
2024-03-06T06:15:16.965Z,-2.80
2024-03-06T06:17:45.948Z,-2.74
2024-03-06T06:20:16.722Z,-2.66
2024-03-06T06:22:44.081Z,-2.50
2024-03-06T06:25:11.266Z,-2.45
2024-03-06T06:27:38.202Z,-2.38
2024-03-06T06:30:06.967Z,-2.25
2024-03-06T06:32:34.660Z,-2.09
2024-03-06T06:35:01.637Z,-1.90
2024-03-06T06:37:28.409Z,-1.84
2024-03-06T06:39:54.996Z,-1.70
2024-03-06T06:42:21.879Z,-1.54
2024-03-06T06:44:48.518Z,-1.38
2024-03-06T06:47:15.142Z,-1.19
2024-03-06T06:49:41.742Z,-1.02
2024-03-06T06:52:09.027Z,-0.82
2024-03-06T06:54:35.765Z,-0.64
2024-03-06T06:57:02.395Z,-0.44
2024-03-06T06:59:29.589Z,-0.27
2024-03-06T07:01:56.753Z,-0.07
2024-03-06T07:04:25.472Z,0.18
2024-03-06T07:06:52.120Z,0.45
2024-03-06T07:09:19.611Z,0.84
2024-03-06T07:11:46.517Z,1.28
2024-03-06T07:14:14.138Z,1.55
2024-03-06T07:16:45.002Z,1.65
2024-03-06T07:19:12.497Z,1.79
2024-03-06T07:21:39.092Z,2.05
2024-03-06T07:24:06.160Z,2.24
2024-03-06T07:26:36.394Z,2.52
2024-03-06T07:29:03.806Z,2.93
2024-03-06T07:31:30.664Z,3.32
2024-03-06T07:33:57.317Z,3.87
2024-03-06T07:36:23.897Z,4.35
2024-03-06T07:38:50.484Z,4.64
2024-03-06T07:41:17.334Z,4.66
2024-03-06T07:43:44.486Z,4.64
2024-03-06T07:46:14.217Z,4.69
2024-03-06T07:48:45.284Z,5.12
2024-03-06T07:51:12.074Z,5.63
2024-03-06T07:53:38.753Z,6.04
2024-03-06T07:56:05.681Z,6.31
2024-03-06T07:58:32.412Z,6.62
2024-03-06T08:01:00.455Z,6.71
2024-03-06T08:03:27.126Z,6.92
2024-03-06T08:05:54.556Z,6.67
2024-03-06T08:08:22.318Z,6.59
2024-03-06T08:10:49.267Z,6.17
2024-03-06T08:13:16.863Z,5.83
2024-03-06T08:15:45.346Z,5.52
2024-03-06T08:18:12.551Z,5.34
2024-03-06T08:20:39.217Z,5.56
2024-03-06T08:23:05.849Z,5.66
2024-03-06T08:25:34.011Z,6.27
2024-03-06T08:28:00.742Z,6.54
2024-03-06T08:30:27.353Z,6.21
2024-03-06T08:32:54.320Z,5.96
2024-03-06T08:35:22.652Z,5.79
2024-03-06T08:37:49.406Z,5.77
2024-03-06T08:40:17.046Z,5.94
2024-03-06T08:42:43.938Z,6.85
2024-03-06T08:45:11.972Z,8.19
2024-03-06T08:47:38.756Z,9.62
2024-03-06T08:50:05.804Z,11.04
2024-03-06T08:52:33.241Z,12.23
2024-03-06T08:55:00.202Z,12.73
2024-03-06T08:57:29.408Z,13.48
2024-03-06T08:59:56.609Z,14.20
2024-03-06T09:02:23.395Z,14.17
2024-03-06T09:04:52.808Z,14.09
2024-03-06T09:07:19.987Z,13.86
2024-03-06T09:09:47.024Z,13.79
2024-03-06T09:12:14.175Z,13.24
2024-03-06T09:14:41.133Z,13.01
2024-03-06T09:17:10.572Z,12.03
2024-03-06T09:19:38.301Z,11.23
2024-03-06T09:22:06.004Z,10.55
2024-03-06T09:24:32.607Z,11.34
2024-03-06T09:26:59.589Z,10.80
2024-03-06T09:29:26.174Z,10.28
2024-03-06T09:31:52.886Z,10.01
2024-03-06T09:34:19.489Z,9.60
2024-03-06T09:36:50.602Z,9.10
2024-03-06T09:39:24.268Z,8.98
2024-03-06T09:41:51.381Z,9.14
2024-03-06T09:44:18.979Z,10.03
2024-03-06T09:46:46.810Z,10.76
2024-03-06T09:49:16.144Z,10.55
2024-03-06T09:51:47.081Z,10.37
2024-03-06T09:54:20.569Z,10.34
2024-03-06T09:56:48.571Z,11.00
2024-03-06T09:59:16.253Z,12.50
2024-03-06T10:01:45.533Z,14.10
2024-03-06T10:04:19.718Z,14.86
2024-03-06T10:06:47.354Z,16.19
2024-03-06T10:09:17.332Z,17.03
2024-03-06T10:11:44.017Z,16.25
2024-03-06T10:14:13.555Z,15.06
2024-03-06T10:16:57.153Z,12.93
2024-03-06T10:19:26.335Z,11.72
2024-03-06T10:21:53.020Z,10.92
2024-03-06T10:24:24.920Z,10.34
2024-03-06T10:26:52.806Z,9.83
2024-03-06T10:29:20.185Z,9.67
2024-03-06T10:31:57.844Z,9.80
2024-03-06T10:34:30.149Z,9.66
2024-03-06T10:36:58.589Z,9.73
2024-03-06T10:39:25.685Z,10.52
2024-03-06T10:41:57.819Z,10.75
2024-03-06T10:44:26.985Z,10.73
2024-03-06T10:46:58.392Z,10.45
2024-03-06T10:49:29.209Z,10.07
2024-03-06T10:52:07.995Z,9.69
2024-03-06T10:54:36.176Z,9.26
2024-03-06T10:57:03.571Z,9.14
2024-03-06T10:59:31.359Z,9.16
2024-03-06T11:02:01.942Z,9.05
2024-03-06T11:04:31.307Z,9.64
2024-03-06T11:07:00.736Z,10.21
2024-03-06T11:09:45.671Z,10.10
2024-03-06T11:12:13.610Z,9.98
2024-03-06T11:14:41.200Z,9.67
2024-03-06T11:17:10.433Z,9.42
2024-03-06T11:20:04.592Z,9.05
2024-03-06T11:23:00.410Z,9.11
2024-03-06T11:25:46.763Z,9.18
2024-03-06T11:28:19.453Z,9.43
2024-03-06T11:30:48.021Z,9.36
2024-03-06T11:33:17.888Z,10.07
2024-03-06T11:36:05.269Z,10.63
2024-03-06T11:38:31.877Z,11.50
2024-03-06T11:40:59.512Z,10.92
2024-03-06T11:43:27.796Z,10.41
2024-03-06T11:45:54.991Z,11.37
2024-03-06T11:48:22.987Z,13.07
2024-03-06T11:50:52.089Z,14.42
2024-03-06T11:53:21.840Z,15.75
2024-03-06T11:55:48.388Z,14.42
2024-03-06T11:58:14.936Z,12.76
2024-03-06T12:00:43.586Z,11.53
2024-03-06T12:03:10.252Z,10.88
2024-03-06T12:05:36.914Z,10.97
2024-03-06T12:08:04.509Z,12.49
2024-03-06T12:10:31.090Z,14.11
2024-03-06T12:12:57.674Z,14.60
2024-03-06T12:15:24.245Z,13.65
2024-03-06T12:17:51.838Z,12.93
2024-03-06T12:20:19.706Z,13.34
2024-03-06T12:22:49.386Z,14.16
2024-03-06T12:25:23.413Z,14.60
2024-03-06T12:27:51.234Z,14.93
2024-03-06T12:30:24.303Z,15.12
2024-03-06T12:32:58.211Z,15.14
2024-03-06T12:35:26.582Z,15.30
2024-03-06T12:37:53.986Z,14.96
2024-03-06T12:40:21.270Z,14.20
2024-03-06T12:42:48.131Z,13.14
2024-03-06T12:45:14.698Z,12.50
2024-03-06T12:47:44.926Z,12.01
2024-03-06T12:50:11.882Z,11.74
2024-03-06T12:52:39.234Z,11.10
2024-03-06T12:55:06.211Z,10.91
2024-03-06T12:57:33.542Z,10.73
2024-03-06T13:00:00.502Z,10.38
2024-03-06T13:02:27.650Z,10.37
2024-03-06T13:04:54.238Z,10.20
2024-03-06T13:07:21.023Z,10.01
2024-03-06T13:09:47.597Z,10.17
2024-03-06T13:12:14.215Z,10.82
2024-03-06T13:14:40.826Z,11.40
2024-03-06T13:17:07.530Z,11.99
2024-03-06T13:19:34.782Z,12.54
2024-03-06T13:22:04.606Z,13.56
2024-03-06T13:24:32.597Z,14.21
2024-03-06T13:27:00.633Z,14.51
2024-03-06T13:29:27.242Z,14.65
2024-03-06T13:31:53.833Z,14.31
2024-03-06T13:34:20.366Z,13.51
2024-03-06T13:36:46.845Z,12.60
2024-03-06T13:39:13.572Z,11.91
2024-03-06T13:41:41.679Z,11.65
2024-03-06T13:44:09.070Z,11.43
2024-03-06T13:46:35.671Z,11.40
2024-03-06T13:49:02.444Z,11.26
2024-03-06T13:51:29.129Z,11.13
2024-03-06T13:53:55.764Z,10.95
2024-03-06T13:56:22.364Z,10.79
2024-03-06T13:58:48.930Z,10.49
2024-03-06T14:01:15.436Z,10.49
2024-03-06T14:03:42.112Z,10.42
2024-03-06T14:06:10.665Z,10.32
2024-03-06T14:08:39.205Z,10.10
2024-03-06T14:11:08.282Z,9.93
2024-03-06T14:13:35.035Z,9.82
2024-03-06T14:16:01.996Z,9.72
2024-03-06T14:18:28.694Z,9.62
2024-03-06T14:20:55.410Z,9.56
2024-03-06T14:23:22.062Z,9.38
2024-03-06T14:25:48.790Z,9.32
2024-03-06T14:28:15.420Z,9.24
2024-03-06T14:30:43.251Z,9.15
2024-03-06T14:33:10.029Z,9.10
2024-03-06T14:35:36.684Z,9.04
2024-03-06T14:38:03.619Z,9.10
2024-03-06T14:40:31.695Z,9.07
2024-03-06T14:42:58.224Z,8.94
2024-03-06T14:45:24.774Z,9.04
2024-03-06T14:47:51.520Z,9.14
2024-03-06T14:50:18.316Z,9.08
2024-03-06T14:52:45.272Z,9.08
2024-03-06T14:55:11.906Z,9.08
2024-03-06T14:57:38.693Z,9.05
2024-03-06T15:00:07.978Z,9.04
2024-03-06T15:02:34.706Z,9.00
2024-03-06T15:05:01.263Z,8.95
2024-03-06T15:07:27.856Z,8.94
2024-03-06T15:09:54.736Z,8.87
2024-03-06T15:12:21.307Z,8.85
2024-03-06T15:14:56.814Z,8.70
2024-03-06T15:17:24.388Z,8.67
2024-03-06T15:19:51.233Z,8.60
2024-03-06T15:22:17.801Z,8.57
2024-03-06T15:24:47.484Z,8.52
2024-03-06T15:27:16.263Z,8.50
2024-03-06T15:29:43.013Z,8.50
2024-03-06T15:32:09.663Z,8.52
2024-03-06T15:34:36.405Z,8.44
2024-03-06T15:37:03.846Z,8.37
2024-03-06T15:39:30.353Z,8.34
2024-03-06T15:41:58.045Z,8.37
2024-03-06T15:44:24.659Z,8.34
2024-03-06T15:46:59.111Z,8.29
2024-03-06T15:49:30.137Z,8.22
2024-03-06T15:51:56.691Z,8.16
2024-03-06T15:54:23.265Z,8.16
2024-03-06T15:56:50.166Z,8.10
2024-03-06T15:59:16.871Z,8.10
2024-03-06T16:01:43.565Z,8.05
2024-03-06T16:04:10.147Z,7.96
2024-03-06T16:06:40.542Z,7.94
2024-03-06T16:09:12.654Z,7.89
2024-03-06T16:11:39.263Z,7.84
2024-03-06T16:14:05.976Z,7.75
2024-03-06T16:16:33.170Z,7.71
2024-03-06T16:18:59.807Z,7.72
2024-03-06T16:21:26.515Z,7.60
2024-03-06T16:23:53.170Z,7.55
2024-03-06T16:26:19.959Z,7.48
2024-03-06T16:28:47.021Z,7.47
2024-03-06T16:31:14.388Z,7.43
2024-03-06T16:33:41.705Z,7.40
2024-03-06T16:36:09.844Z,7.37
2024-03-06T16:38:37.315Z,7.35
2024-03-06T16:41:05.319Z,7.34
2024-03-06T16:43:32.252Z,7.33
2024-03-06T16:45:58.816Z,7.23
2024-03-06T16:48:25.623Z,7.20
2024-03-06T16:50:52.537Z,7.17
2024-03-06T16:53:19.252Z,7.13
2024-03-06T16:55:45.903Z,7.14
2024-03-06T16:58:12.479Z,7.14
2024-03-06T17:00:39.836Z,7.10
2024-03-06T17:03:06.743Z,7.12
2024-03-06T17:05:33.469Z,7.10
2024-03-06T17:08:00.331Z,7.04
2024-03-06T17:10:26.850Z,7.03
2024-03-06T17:12:55.485Z,7.02
2024-03-06T17:15:22.229Z,7.03
2024-03-06T17:17:48.952Z,6.99
2024-03-06T17:20:15.636Z,6.95
2024-03-06T17:22:42.792Z,6.96
2024-03-06T17:25:09.781Z,6.92
2024-03-06T17:27:36.810Z,6.92
2024-03-06T17:30:03.737Z,6.89
2024-03-06T17:32:30.415Z,6.82
2024-03-06T17:34:57.604Z,6.79
2024-03-06T17:37:24.246Z,6.82
2024-03-06T17:39:52.345Z,6.81
2024-03-06T17:42:19.029Z,6.75
2024-03-06T17:44:45.600Z,6.75
2024-03-06T17:47:12.152Z,6.71
2024-03-06T17:49:39.694Z,6.69
2024-03-06T17:52:06.409Z,6.69
2024-03-06T17:54:34.960Z,6.68
2024-03-06T17:57:01.543Z,6.67
2024-03-06T17:59:28.088Z,6.67
2024-03-06T18:01:54.743Z,6.64
2024-03-06T18:04:23.308Z,6.64
2024-03-06T18:06:50.746Z,6.62
2024-03-06T18:09:19.750Z,6.56
2024-03-06T18:11:46.440Z,6.59
2024-03-06T18:14:13.090Z,6.54
2024-03-06T18:16:39.599Z,6.56
2024-03-06T18:19:06.762Z,6.52
2024-03-06T18:21:33.589Z,6.54
2024-03-06T18:24:00.254Z,6.55
2024-03-06T18:26:26.812Z,6.54
2024-03-06T18:28:53.390Z,6.49
2024-03-06T18:31:19.978Z,6.52
2024-03-06T18:33:46.642Z,6.51
2024-03-06T18:36:13.201Z,6.54
2024-03-06T18:38:39.816Z,6.54
2024-03-06T18:41:06.365Z,6.49
2024-03-06T18:43:32.886Z,6.49
2024-03-06T18:45:59.453Z,6.49
2024-03-06T18:48:26.078Z,6.49
2024-03-06T18:50:52.869Z,6.49
2024-03-06T18:53:20.025Z,6.44
2024-03-06T18:55:46.717Z,6.42
2024-03-06T18:58:13.256Z,6.41
2024-03-06T19:00:39.960Z,6.38
2024-03-06T19:03:07.228Z,6.41
2024-03-06T19:05:34.190Z,6.42
2024-03-06T19:08:00.800Z,6.40
2024-03-06T19:10:27.378Z,6.44
2024-03-06T19:12:53.973Z,6.40
2024-03-06T19:15:20.606Z,6.42
2024-03-06T19:17:48.221Z,6.38
2024-03-06T19:20:15.026Z,6.37
2024-03-06T19:22:41.645Z,6.34
2024-03-06T19:25:11.477Z,6.31
2024-03-06T19:27:39.694Z,6.30
2024-03-06T19:30:10.263Z,6.27
2024-03-06T19:32:50.409Z,6.28
2024-03-06T19:35:23.107Z,6.30
2024-03-06T19:37:49.828Z,6.25
2024-03-06T19:40:16.471Z,6.28
2024-03-06T19:42:43.004Z,6.30
2024-03-06T19:45:11.259Z,6.25
2024-03-06T19:47:38.072Z,6.24
2024-03-06T19:50:05.890Z,6.24
2024-03-06T19:52:32.510Z,6.20
2024-03-06T19:54:59.153Z,6.18
2024-03-06T19:57:25.656Z,6.18
2024-03-06T19:59:52.279Z,6.13
2024-03-06T20:02:19.707Z,6.13
2024-03-06T20:04:50.164Z,6.11
2024-03-06T20:07:17.042Z,6.14
2024-03-06T20:09:43.559Z,6.13
2024-03-06T20:12:10.175Z,6.11
2024-03-06T20:14:36.972Z,6.11
2024-03-06T20:17:03.758Z,6.06
2024-03-06T20:19:30.429Z,6.11
2024-03-06T20:21:56.958Z,6.04
2024-03-06T20:24:25.264Z,6.04
2024-03-06T20:26:52.555Z,6.09
2024-03-06T20:29:19.602Z,6.03
2024-03-06T20:31:49.614Z,6.02
2024-03-06T20:34:17.360Z,6.02
2024-03-06T20:36:43.992Z,5.97
2024-03-06T20:39:16.186Z,5.96
2024-03-06T20:41:44.139Z,5.94
2024-03-06T20:44:11.673Z,5.96
2024-03-06T20:46:38.926Z,5.97
2024-03-06T20:49:07.666Z,5.96
2024-03-06T20:51:34.539Z,5.96
2024-03-06T20:54:01.292Z,5.93
2024-03-06T20:56:28.114Z,5.96
2024-03-06T20:58:55.360Z,5.99
2024-03-06T21:01:22.461Z,5.94
2024-03-06T21:03:49.072Z,5.96
2024-03-06T21:06:15.683Z,5.93
2024-03-06T21:08:42.289Z,5.97
2024-03-06T21:11:09.241Z,5.96
2024-03-06T21:13:35.885Z,5.94
2024-03-06T21:16:03.176Z,5.93
2024-03-06T21:18:30.542Z,5.94
2024-03-06T21:20:57.209Z,5.94
2024-03-06T21:23:24.712Z,5.92
2024-03-06T21:25:51.612Z,5.93
2024-03-06T21:28:18.327Z,5.93
2024-03-06T21:30:44.829Z,5.93
2024-03-06T21:33:16.180Z,5.93
2024-03-06T21:35:43.257Z,5.94
2024-03-06T21:38:09.843Z,5.94
2024-03-06T21:40:37.917Z,5.94
2024-03-06T21:43:04.954Z,5.93
2024-03-06T21:45:34.370Z,5.93
2024-03-06T21:48:01.031Z,5.93
2024-03-06T21:50:27.651Z,5.90
2024-03-06T21:52:54.433Z,5.90
2024-03-06T21:55:20.972Z,5.93
2024-03-06T21:57:47.620Z,5.89
2024-03-06T22:00:15.853Z,5.99
2024-03-06T22:02:42.608Z,5.97
2024-03-06T22:05:09.279Z,5.93
2024-03-06T22:07:36.040Z,5.96
2024-03-06T22:10:03.037Z,5.92
2024-03-06T22:12:29.591Z,5.90
2024-03-06T22:14:56.282Z,5.90
2024-03-06T22:17:24.196Z,5.90
2024-03-06T22:19:50.773Z,5.93
2024-03-06T22:22:17.855Z,5.92
2024-03-06T22:24:44.413Z,5.89
2024-03-06T22:27:11.701Z,5.87
2024-03-06T22:29:39.066Z,5.86
2024-03-06T22:32:05.817Z,5.87
2024-03-06T22:34:32.386Z,5.87
2024-03-06T22:36:58.983Z,5.83
2024-03-06T22:39:25.566Z,5.87
2024-03-06T22:41:52.172Z,5.85
2024-03-06T22:44:18.807Z,5.87
2024-03-06T22:46:51.251Z,5.89
2024-03-06T22:49:21.658Z,5.86
2024-03-06T22:51:48.372Z,5.89
2024-03-06T22:54:15.732Z,5.83
2024-03-06T22:56:42.306Z,5.89
2024-03-06T22:59:09.135Z,5.89
2024-03-06T23:01:35.947Z,5.83
2024-03-06T23:04:02.661Z,5.85
2024-03-06T23:06:29.223Z,5.82
2024-03-06T23:08:55.781Z,5.85
2024-03-06T23:11:22.605Z,5.86
2024-03-06T23:13:49.248Z,5.82
2024-03-06T23:16:15.839Z,5.76
2024-03-06T23:18:42.543Z,5.76
2024-03-06T23:21:09.894Z,5.74
2024-03-06T23:23:36.527Z,5.80
2024-03-06T23:26:03.139Z,5.76
2024-03-06T23:28:29.793Z,5.73
2024-03-06T23:30:56.392Z,5.73
2024-03-06T23:33:23.812Z,5.74
2024-03-06T23:35:50.778Z,5.73
2024-03-06T23:38:17.831Z,5.67
2024-03-06T23:40:44.642Z,5.72
2024-03-06T23:43:11.200Z,5.70
2024-03-06T23:45:37.740Z,5.62
2024-03-06T23:48:04.843Z,5.62
2024-03-06T23:50:31.422Z,5.62
2024-03-06T23:52:57.959Z,5.59
2024-03-06T23:55:24.614Z,5.58
2024-03-06T23:57:51.203Z,5.58
